PWSweather.com
Personal Weather Stations
Station Observations

AwhituWaiuku, CA 268400

Lat: -37.058, Lon: -174.6346

Elevation: 250

Station Type: Personal

http://www.weather-display.com/windy/gb/grahamsbeach.htm

Latest ConditionsUpdated 10:00:02 PM GMT-12:48 Wednesday, Jul 17, 2019
Currently Today's Max Today's Min Today's Average
Temperature 52.0°F11.1°C 62.8°F17.1°C 50.8°F10.4°C 55.0°F12.8°C
Dew Point 50.0°F10.0°C 54.4°F12.4°C 42.7°F5.9°C 48.5°F9.2°C
Winds 3.5 mph NE5.6 kmh NE 23.0 mph -37.0 kmh - - 12.3 mph 19.8 kmh
Wind Gusts 3.5 mph5.6 kmh 41.4 mph66.6 kmh - -
Humidity 93% 93% 69% 79%
Pressure 29.78 in1008.5 mb 29.80 in1009.1 mb 29.65 in1004.1 mb -
Precipitation - 0.01 in0.3 mm - -
Hour Temp Dew Point Humidity Winds Wind Gusts Pressure Precip Precip Rate Daily Precip Total
10:00 PM 52.0°F11.1°C 50.0°F10.0°C 93% 3.5 mph NE5.6 kmh NE 3.5 mph5.6 kmh 29.78 in1008.5 mb - 0.00 in0.0 mm 0.01 in0.3 mm
09:30 PM 51.6°F10.9°C 49.6°F9.8°C 93% 2.3 mph NE3.7 kmh NE 4.6 mph7.4 kmh 29.78 in1008.5 mb - 0.00 in0.0 mm 0.01 in0.3 mm
09:00 PM 51.4°F10.8°C 49.5°F9.7°C 93% 3.5 mph NE5.6 kmh NE 4.6 mph7.4 kmh 29.78 in1008.5 mb - 0.00 in0.0 mm 0.01 in0.3 mm
08:30 PM 51.5°F10.8°C 49.3°F9.6°C 92% 3.5 mph NE5.6 kmh NE 3.5 mph5.6 kmh 29.78 in1008.5 mb - 0.00 in0.0 mm 0.01 in0.3 mm
08:00 PM 51.5°F10.8°C 49.3°F9.6°C 92% 2.3 mph ENE3.7 kmh ENE 3.5 mph5.6 kmh 29.78 in1008.5 mb - 0.00 in0.0 mm 0.01 in0.3 mm
07:30 PM 51.9°F11.1°C 49.4°F9.7°C 91% 3.5 mph NE5.6 kmh NE 3.5 mph5.6 kmh 29.78 in1008.5 mb - 0.00 in0.0 mm 0.01 in0.3 mm
07:00 PM 52.3°F11.3°C 49.5°F9.7°C 90% 3.5 mph NE5.6 kmh NE 4.6 mph7.4 kmh 29.77 in1008.1 mb - 0.00 in0.0 mm 0.01 in0.3 mm
06:30 PM 52.8°F11.6°C 49.3°F9.6°C 88% 3.5 mph NE5.6 kmh NE 3.5 mph5.6 kmh 29.77 in1008.1 mb - 0.00 in0.0 mm 0.01 in0.3 mm
06:00 PM 53.6°F12.0°C 49.8°F9.9°C 87% 4.6 mph NNE7.4 kmh NNE 4.6 mph7.4 kmh 29.77 in1008.1 mb - 0.00 in0.0 mm 0.01 in0.3 mm
05:30 PM 54.3°F12.4°C 49.6°F9.8°C 84% 5.8 mph NNE9.3 kmh NNE 5.8 mph9.3 kmh 29.77 in1008.1 mb - 0.00 in0.0 mm 0.01 in0.3 mm
05:00 PM 55.9°F13.3°C 50.2°F10.1°C 81% 3.5 mph N5.6 kmh N 4.6 mph7.4 kmh 29.77 in1008.1 mb - 0.00 in0.0 mm 0.01 in0.3 mm
04:30 PM 56.7°F13.7°C 50.6°F10.3°C 80% 11.5 mph NW18.5 kmh NW 12.7 mph20.4 kmh 29.76 in1007.8 mb - 0.00 in0.0 mm 0.01 in0.3 mm
04:00 PM 56.5°F13.6°C 51.4°F10.8°C 83% 11.5 mph NW18.5 kmh NW 13.8 mph22.2 kmh 29.76 in1007.8 mb - 0.00 in0.0 mm 0.01 in0.3 mm
03:30 PM 60.1°F15.6°C 50.6°F10.3°C 71% 15.0 mph NW24.1 kmh NW 17.3 mph27.8 kmh 29.76 in1007.8 mb - 0.00 in0.0 mm 0.01 in0.3 mm
03:00 PM 61.4°F16.3°C 52.3°F11.3°C 72% 17.3 mph WNW27.8 kmh WNW 20.7 mph33.3 kmh 29.76 in1007.8 mb - 0.00 in0.0 mm 0.01 in0.3 mm
02:30 PM 61.9°F16.6°C 52.0°F11.1°C 70% 12.7 mph W20.4 kmh W 16.1 mph25.9 kmh 29.76 in1007.8 mb - 0.00 in0.0 mm 0.01 in0.3 mm
02:00 PM 62.8°F17.1°C 54.4°F12.4°C 74% 11.5 mph WNW18.5 kmh WNW 13.8 mph22.2 kmh 29.76 in1007.8 mb - 0.00 in0.0 mm 0.01 in0.3 mm
01:30 PM 61.4°F16.3°C 53.8°F12.1°C 76% 9.2 mph W14.8 kmh W 11.5 mph18.5 kmh 29.76 in1007.8 mb - 0.00 in0.0 mm 0.01 in0.3 mm
01:00 PM 61.6°F16.4°C 52.9°F11.6°C 73% 13.8 mph W22.2 kmh W 17.3 mph27.8 kmh 29.77 in1008.1 mb - 0.00 in0.0 mm 0.01 in0.3 mm
12:30 PM 61.8°F16.6°C 53.8°F12.1°C 75% 12.7 mph W20.4 kmh W 16.1 mph25.9 kmh 29.77 in1008.1 mb - 0.00 in0.0 mm 0.01 in0.3 mm
12:00 PM 61.3°F16.3°C 52.6°F11.4°C 73% 13.8 mph WNW22.2 kmh WNW 16.1 mph25.9 kmh 29.79 in1008.8 mb - 0.00 in0.0 mm 0.01 in0.3 mm
11:30 AM 59.9°F15.5°C 50.9°F10.5°C 72% 17.3 mph WNW27.8 kmh WNW 21.9 mph35.2 kmh 29.80 in1009.1 mb - 0.00 in0.0 mm 0.01 in0.3 mm
11:00 AM 58.2°F14.6°C 50.0°F10.0°C 74% 11.5 mph NW18.5 kmh NW 12.7 mph20.4 kmh 29.80 in1009.1 mb - 0.00 in0.0 mm 0.01 in0.3 mm
10:30 AM 60.3°F15.7°C 51.6°F10.9°C 73% 17.3 mph NW27.8 kmh NW 20.7 mph33.3 kmh 29.80 in1009.1 mb - 0.00 in0.0 mm 0.01 in0.3 mm
10:00 AM 55.4°F13.0°C 49.6°F9.8°C 81% 4.6 mph W7.4 kmh W 6.9 mph11.1 kmh 29.80 in1009.1 mb - 0.00 in0.0 mm 0.01 in0.3 mm
09:30 AM 56.0°F13.3°C 48.9°F9.4°C 77% 13.8 mph W22.2 kmh W 17.3 mph27.8 kmh 29.79 in1008.8 mb - 0.00 in0.0 mm 0.01 in0.3 mm
09:00 AM 54.6°F12.6°C 47.5°F8.6°C 77% 10.4 mph WSW16.7 kmh WSW 13.8 mph22.2 kmh 29.78 in1008.5 mb - 0.00 in0.0 mm 0.01 in0.3 mm
08:30 AM 52.6°F11.4°C 45.9°F7.7°C 78% 16.1 mph WSW25.9 kmh WSW 19.6 mph31.5 kmh 29.77 in1008.1 mb - 0.00 in0.0 mm 0.01 in0.3 mm
08:00 AM 51.8°F11.0°C 47.7°F8.7°C 86% 10.4 mph W16.7 kmh W 12.7 mph20.4 kmh 29.77 in1008.1 mb - 0.00 in0.0 mm 0.01 in0.3 mm
07:30 AM 50.8°F10.4°C 46.8°F8.2°C 86% 9.2 mph WNW14.8 kmh WNW 11.5 mph18.5 kmh 29.75 in1007.5 mb - 0.01 in0.3 mm 0.01 in0.3 mm
07:00 AM 51.7°F10.9°C 47.0°F8.3°C 84% 10.4 mph W16.7 kmh W 11.5 mph18.5 kmh 29.75 in1007.5 mb - 0.01 in0.3 mm 0.01 in0.3 mm
06:30 AM 53.6°F12.0°C 46.6°F8.1°C 77% 16.1 mph WSW25.9 kmh WSW 19.6 mph31.5 kmh 29.73 in1006.8 mb - 0.00 in0.0 mm 0.00 in0.0 mm
06:00 AM 53.3°F11.8°C 44.9°F7.2°C 73% 16.1 mph W25.9 kmh W 19.6 mph31.5 kmh 29.72 in1006.4 mb - 0.00 in0.0 mm 0.00 in0.0 mm
05:30 AM 52.6°F11.4°C 44.9°F7.2°C 75% 17.3 mph W27.8 kmh W 26.5 mph42.6 kmh 29.70 in1005.8 mb - 0.00 in0.0 mm 0.00 in0.0 mm
05:00 AM 52.7°F11.5°C 45.0°F7.2°C 75% 20.7 mph WSW33.3 kmh WSW 26.5 mph42.6 kmh 29.69 in1005.4 mb - 0.00 in0.0 mm 0.00 in0.0 mm
04:30 AM 52.5°F11.4°C 44.8°F7.1°C 75% 17.3 mph WSW27.8 kmh WSW 21.9 mph35.2 kmh 29.69 in1005.4 mb - 0.00 in0.0 mm 0.00 in0.0 mm
04:00 AM 53.1°F11.7°C 45.7°F7.6°C 76% 19.6 mph W31.5 kmh W 19.6 mph31.5 kmh 29.68 in1005.1 mb - 0.00 in0.0 mm 0.00 in0.0 mm
03:30 AM 52.3°F11.3°C 45.0°F7.2°C 76% 18.4 mph WSW29.6 kmh WSW 25.3 mph40.7 kmh 29.68 in1005.1 mb - 0.00 in0.0 mm 0.00 in0.0 mm
03:00 AM 52.5°F11.4°C 45.5°F7.5°C 77% 17.3 mph WSW27.8 kmh WSW 23.0 mph37.0 kmh 29.67 in1004.7 mb - 0.00 in0.0 mm 0.00 in0.0 mm
02:30 AM 52.9°F11.6°C 44.5°F6.9°C 73% 20.7 mph W33.3 kmh W 25.3 mph40.7 kmh 29.67 in1004.7 mb - 0.00 in0.0 mm 0.00 in0.0 mm
02:00 AM 52.9°F11.6°C 44.8°F7.1°C 74% 20.7 mph W33.3 kmh W 32.2 mph51.8 kmh 29.68 in1005.1 mb - 0.00 in0.0 mm 0.00 in0.0 mm
01:30 AM 52.6°F11.4°C 42.7°F5.9°C 69% 20.7 mph W33.3 kmh W 31.1 mph50.1 kmh 29.66 in1004.4 mb - 0.00 in0.0 mm 0.00 in0.0 mm
01:00 AM 52.3°F11.3°C 42.8°F6.0°C 70% 19.6 mph WSW31.5 kmh WSW 23.0 mph37.0 kmh 29.65 in1004.1 mb - 0.00 in0.0 mm 0.00 in0.0 mm
12:30 AM 52.1°F11.2°C 44.8°F7.1°C 76% 18.4 mph WSW29.6 kmh WSW 23.0 mph37.0 kmh 29.65 in1004.1 mb - 0.00 in0.0 mm 0.00 in0.0 mm
12:00 AM 53.0°F11.7°C 46.3°F7.9°C 78% 23.0 mph W37.0 kmh W 41.4 mph66.6 kmh 29.65 in1004.1 mb - 0.00 in0.0 mm 0.00 in0.0 mm